This is the latest recevied weather packets stored in our database for station/object KN4CI-1. If no packets are shown the sender has not sent any weather packets the latest 10 day(s).
| Time | Temp. | Humidity | Pressure | Rain* | Wind** | Luminosity | Snow |
|---|---|---|---|---|---|---|---|
| 1777729462 | 14.44° C | 19% | 1016.6 hPa | 0 mm | 1.34 m/s, 6° | - | - |
| 1777729162 | 13.33° C | 19% | 1016.6 hPa | 0 mm | 2.24 m/s, 335° | - | - |
| 1777728862 | 13.33° C | 20% | 1016.6 hPa | 0 mm | 1.79 m/s, 339° | - | - |
| 1777728558 | 13.33° C | 19% | 1016.6 hPa | 0 mm | 1.34 m/s, 356° | - | - |
| 1777728258 | 13.33° C | 19% | 1016.6 hPa | 0 mm | 1.79 m/s, 347° | - | - |
| 1777727958 | 13.33° C | 19% | 1016.6 hPa | 0 mm | 1.79 m/s, 356° | - | - |
| 1777727654 | 13.33° C | 20% | 1016.6 hPa | 0 mm | 1.79 m/s, 343° | - | - |
| 1777727354 | 13.33° C | 20% | 1016.6 hPa | 0 mm | 0 m/s | - | - |
| 1777727054 | 13.33° C | 20% | 1016.6 hPa | 0 mm | 1.79 m/s, 351° | - | - |
| 1777726451 | 12.78° C | 20% | 1016.6 hPa | 0 mm | 2.24 m/s, 305° | - | - |
| 1777726151 | 12.22° C | 20% | 1016.6 hPa | 0 mm | 2.24 m/s, 327° | - | - |
| 1777724940 | 11.67° C | 20% | 1016.6 hPa | 0 mm | 1.34 m/s, 351° | - | - |
| 1777724637 | 11.67° C | 20% | 1016.6 hPa | 0 mm | 1.79 m/s, 351° | - | - |
| 1777724337 | 11.11° C | 21% | 1016.6 hPa | 0 mm | 1.79 m/s, 334° | - | - |
| 1777724033 | 11.11° C | 21% | 1016.6 hPa | 0 mm | 0 m/s | - | - |
| 1777723729 | 10.56° C | 21% | 1016.6 hPa | 0 mm | 0 m/s | - | - |
| 1777723429 | 10.56° C | 21% | 1016.6 hPa | 0 mm | 1.79 m/s, 356° | - | - |
| 1777723124 | 10.56° C | 21% | 1016.6 hPa | 0 mm | 0 m/s | - | - |
| 1777722824 | 10.56° C | 21% | 1016.6 hPa | 0 mm | 0 m/s | - | - |
| 1777722524 | 10° C | 21% | 1016.6 hPa | 0 mm | 0 m/s | - | - |
| 1777722220 | 10° C | 21% | 1016.6 hPa | 0 mm | 0 m/s | - | - |
| 1777721920 | 10.56° C | 21% | 1016.6 hPa | 0 mm | 0 m/s | - | - |
| 1777721621 | 10.56° C | 21% | 1015.6 hPa | 0 mm | 0 m/s | - | - |
| 1777721316 | 10.56° C | 21% | 1015.6 hPa | 0 mm | 0 m/s | - | - |
| 1777721017 | 10.56° C | 21% | 1015.6 hPa | 0 mm | 1.34 m/s, 351° | - | - |
* Rain latest hour (hover to see other rain measurements)
** Current wind speed in m/s (hover to see current wind gust speed)